Seawolf — WDE7235 — position and weather

sailwx.info

Track history (hours):
 
Tides and Currents Weather Stations Pressure Air Temp Water Temp Dewpoint Dewpoint Depression Visibility Wind Speed Wind Dir Waves Ship Positions

Oceanographic research ship Seawolf (United States)

Owner: School of Marine and Atmospheric Sciences, Stony Brook University, NY, Stony Brook, NY. More information available from US FCC via Universal Licensing System and Coast Guard Vessel Documentation Center.

Last reported at 2019-Nov-15 20:00 UTC. Time now 2019-Dec-12 08:20 UTC.
Position N 40°42' W 074°00'.
Warning: this ship's position is 26 days out of date.

Length 24 m; draft 3.5 m.

Type: Other ship. MMSI: 367390740.

Date/timePositionNaut miles runAvg speedWind from/ knotsBaromVisibWave heightAir tempDewpointWater temp
2019-Nov-15 20:00N 40°42' W 074°00'7 6.4
2019-Nov-15 19:00N 40°36' W 074°02'8 2.3
2019-Nov-15 15:22N 40°34' W 073°51'11 1.9
2019-Nov-15 09:30N 40°40' W 074°03'2 1.6
2019-Nov-15 08:30N 40°41' W 074°04'0 0.0
2019-Nov-15 07:00N 40°41' W 074°04'0 0.0
2019-Nov-15 04:30N 40°41' W 074°04'0 0.0
2019-Nov-15 03:30N 40°41' W 074°04'4 1.0
2019-Nov-15 00:00N 40°38' W 074°03'20 4.2
2019-Nov-14 19:07N 40°34' W 073°37'1 9.0
2019-Nov-14 18:58N 40°34' W 073°38'2 5.1
2019-Nov-14 18:29N 40°34' W 073°42'16 1.9
2019-Nov-14 10:23N 40°35' W 074°02'  
2019-Nov-10 20:38N 39°49' W 073°53'12 5.6
2019-Nov-10 18:29N 39°37' W 073°55'  
Track history (hours):
 
Tides and Currents Weather Stations Pressure Air Temp Water Temp Dewpoint Dewpoint Depression Visibility Wind Speed Wind Dir Waves Ship Positions

Oceanographic research ship Seawolf (United States)

Owner: School of Marine and Atmospheric Sciences, Stony Brook University, NY, Stony Brook, NY. More information available from US FCC via Universal Licensing System and Coast Guard Vessel Documentation Center.

Last reported at 2019-Nov-15 20:00 UTC. Time now 2019-Dec-12 08:20 UTC.
Position N 40°42' W 074°00'.
Warning: this ship's position is 26 days out of date.

Length 24 m; draft 3.5 m.

Type: Other ship. MMSI: 367390740.

Date/timePositionNaut miles runAvg speedWind from/ knotsBaromVisibWave heightAir tempDewpointWater temp
2019-Nov-15 20:00N 40°42' W 074°00'7 6.4
2019-Nov-15 19:00N 40°36' W 074°02'8 2.3
2019-Nov-15 15:22N 40°34' W 073°51'11 1.9
2019-Nov-15 09:30N 40°40' W 074°03'2 1.6
2019-Nov-15 08:30N 40°41' W 074°04'0 0.0
2019-Nov-15 07:00N 40°41' W 074°04'0 0.0
2019-Nov-15 04:30N 40°41' W 074°04'0 0.0
2019-Nov-15 03:30N 40°41' W 074°04'4 1.0
2019-Nov-15 00:00N 40°38' W 074°03'20 4.2
2019-Nov-14 19:07N 40°34' W 073°37'1 9.0
2019-Nov-14 18:58N 40°34' W 073°38'2 5.1
2019-Nov-14 18:29N 40°34' W 073°42'16 1.9
2019-Nov-14 10:23N 40°35' W 074°02'  
2019-Nov-10 20:38N 39°49' W 073°53'12 5.6
2019-Nov-10 18:29N 39°37' W 073°55'  

Dump ship's entire track history